createdAt,value
2023-12-20T00:00:03.997Z,5.86
2023-12-20T00:02:31.865Z,5.89
2023-12-20T00:04:59.626Z,5.88
2023-12-20T00:07:27.546Z,5.87
2023-12-20T00:09:55.283Z,5.85
2023-12-20T00:12:23.225Z,5.83
2023-12-20T00:14:50.845Z,5.80
2023-12-20T00:17:18.764Z,5.78
2023-12-20T00:19:46.467Z,5.81
2023-12-20T00:22:14.218Z,5.84
2023-12-20T00:24:41.852Z,5.85
2023-12-20T00:27:09.455Z,5.84
2023-12-20T00:29:37.071Z,5.83
2023-12-20T00:32:05.662Z,5.81
2023-12-20T00:34:33.291Z,5.78
2023-12-20T00:37:00.887Z,5.77
2023-12-20T00:39:28.493Z,5.79
2023-12-20T00:41:56.185Z,5.81
2023-12-20T00:44:23.761Z,5.83
2023-12-20T00:46:52.025Z,5.83
2023-12-20T00:49:19.735Z,5.81
2023-12-20T00:51:49.064Z,5.78
2023-12-20T00:54:16.873Z,5.76
2023-12-20T00:56:44.805Z,5.72
2023-12-20T00:59:12.384Z,5.69
2023-12-20T01:01:40.148Z,5.68
2023-12-20T01:04:08.059Z,5.70
2023-12-20T01:06:35.721Z,5.71
2023-12-20T01:09:04.004Z,5.71
2023-12-20T01:11:31.627Z,5.69
2023-12-20T01:13:59.239Z,5.69
2023-12-20T01:16:26.847Z,5.67
2023-12-20T01:18:54.537Z,5.63
2023-12-20T01:21:22.252Z,5.59
2023-12-20T01:23:49.877Z,5.57
2023-12-20T01:26:17.919Z,5.58
2023-12-20T01:28:45.488Z,5.60
2023-12-20T01:31:13.424Z,5.61
2023-12-20T01:33:41.146Z,5.59
2023-12-20T01:36:09.087Z,5.57
2023-12-20T01:38:36.868Z,5.53
2023-12-20T01:41:04.743Z,5.47
2023-12-20T01:43:37.889Z,5.41
2023-12-20T01:46:08.874Z,5.37
2023-12-20T01:48:36.766Z,5.37
2023-12-20T01:51:04.846Z,5.40
2023-12-20T01:53:33.797Z,5.43
2023-12-20T01:56:01.608Z,5.43
2023-12-20T01:58:29.274Z,5.43
2023-12-20T02:00:57.015Z,5.43
2023-12-20T02:03:24.720Z,5.44
2023-12-20T02:05:52.358Z,5.47
2023-12-20T02:08:19.984Z,5.51
2023-12-20T02:10:47.539Z,5.55
2023-12-20T02:13:15.225Z,5.60
2023-12-20T02:15:44.858Z,5.63
2023-12-20T02:18:16.471Z,5.66
2023-12-20T02:20:44.380Z,5.68
2023-12-20T02:23:12.096Z,5.68
2023-12-20T02:25:39.813Z,5.66
2023-12-20T02:28:08.019Z,5.62
2023-12-20T02:30:36.014Z,5.60
2023-12-20T02:33:04.501Z,5.58
2023-12-20T02:35:32.090Z,5.56
2023-12-20T02:37:59.687Z,5.55
2023-12-20T02:40:27.297Z,5.51
2023-12-20T02:42:55.028Z,5.49
2023-12-20T02:45:22.740Z,5.45
2023-12-20T02:47:50.452Z,5.42
2023-12-20T02:50:18.116Z,5.40
2023-12-20T02:52:46.198Z,5.39
2023-12-20T02:55:13.993Z,5.38
2023-12-20T02:57:43.598Z,5.35
2023-12-20T03:00:11.985Z,5.31
2023-12-20T03:02:39.626Z,5.26
2023-12-20T03:05:07.707Z,5.21
2023-12-20T03:07:35.412Z,5.18
2023-12-20T03:10:15.336Z,5.17
2023-12-20T03:12:48.020Z,5.18
2023-12-20T03:15:15.901Z,5.19
2023-12-20T03:17:43.873Z,5.17
2023-12-20T03:20:11.971Z,5.15
2023-12-20T03:22:39.624Z,5.11
2023-12-20T03:25:07.755Z,5.09
2023-12-20T03:27:37.814Z,5.09
2023-12-20T03:30:06.487Z,5.09
2023-12-20T03:32:34.532Z,5.08
2023-12-20T03:35:02.595Z,5.05
2023-12-20T03:37:30.560Z,5.03
2023-12-20T03:39:58.322Z,4.97
2023-12-20T03:42:26.526Z,4.95
2023-12-20T03:44:54.259Z,4.94
2023-12-20T03:47:21.832Z,4.95
2023-12-20T03:49:49.666Z,4.95
2023-12-20T03:52:17.475Z,4.93
2023-12-20T03:54:45.178Z,4.89
2023-12-20T03:57:12.870Z,4.86
2023-12-20T03:59:40.739Z,4.86
2023-12-20T04:02:08.346Z,4.87
2023-12-20T04:04:36.210Z,4.87
2023-12-20T04:07:04.344Z,4.87
2023-12-20T04:09:32.042Z,4.84
2023-12-20T04:11:59.727Z,4.81
2023-12-20T04:14:27.370Z,4.79
2023-12-20T04:16:55.065Z,4.80
2023-12-20T04:19:23.088Z,4.81
2023-12-20T04:21:50.945Z,4.82
2023-12-20T04:24:18.729Z,4.81
2023-12-20T04:26:46.344Z,4.79
2023-12-20T04:29:13.936Z,4.76
2023-12-20T04:31:41.587Z,4.75
2023-12-20T04:34:09.279Z,4.77
2023-12-20T04:36:36.970Z,4.80
2023-12-20T04:39:04.648Z,4.80
2023-12-20T04:41:32.216Z,4.77
2023-12-20T04:43:59.919Z,4.74
2023-12-20T04:46:27.789Z,4.72
2023-12-20T04:48:55.459Z,4.73
2023-12-20T04:51:23.128Z,4.75
2023-12-20T04:53:50.760Z,4.77
2023-12-20T04:56:18.338Z,4.76
2023-12-20T04:58:46.014Z,4.75
2023-12-20T05:01:14.094Z,4.73
2023-12-20T05:03:41.788Z,4.71
2023-12-20T05:06:10.777Z,4.72
2023-12-20T05:08:38.382Z,4.74
2023-12-20T05:11:05.989Z,4.73
2023-12-20T05:13:38.385Z,4.72
2023-12-20T05:16:15.328Z,4.71
2023-12-20T05:18:43.251Z,4.70
2023-12-20T05:21:12.124Z,4.72
2023-12-20T05:23:39.931Z,4.74
2023-12-20T05:26:07.722Z,4.74
2023-12-20T05:28:35.368Z,4.72
2023-12-20T05:31:03.643Z,4.68
2023-12-20T05:33:31.485Z,4.67
2023-12-20T05:35:59.227Z,4.68
2023-12-20T05:38:27.119Z,4.70
2023-12-20T05:40:54.897Z,4.69
2023-12-20T05:43:22.714Z,4.67
2023-12-20T05:45:50.636Z,4.67
2023-12-20T05:48:18.636Z,4.68
2023-12-20T05:50:46.333Z,4.72
2023-12-20T05:53:14.154Z,4.73
2023-12-20T05:55:41.998Z,4.72
2023-12-20T05:58:09.658Z,4.70
2023-12-20T06:00:37.860Z,4.69
2023-12-20T06:03:06.109Z,4.69
2023-12-20T06:05:33.754Z,4.69
2023-12-20T06:08:04.055Z,4.68
2023-12-20T06:10:31.842Z,4.66
2023-12-20T06:13:01.830Z,4.63
2023-12-20T06:15:29.869Z,4.61
2023-12-20T06:17:57.840Z,4.62
2023-12-20T06:20:26.092Z,4.64
2023-12-20T06:22:54.111Z,4.63
2023-12-20T06:25:21.945Z,4.60
2023-12-20T06:27:50.027Z,4.56
2023-12-20T06:30:18.239Z,4.53
2023-12-20T06:32:48.042Z,4.53
2023-12-20T06:35:15.827Z,4.52
2023-12-20T06:37:44.462Z,4.50
2023-12-20T06:40:17.383Z,4.47
2023-12-20T06:42:57.334Z,4.43
2023-12-20T06:45:29.950Z,4.43
2023-12-20T06:47:58.003Z,4.43
2023-12-20T06:50:25.800Z,4.40
2023-12-20T06:52:54.056Z,4.35
2023-12-20T06:55:21.967Z,4.30
2023-12-20T06:57:50.070Z,4.27
2023-12-20T07:00:18.910Z,4.27
2023-12-20T07:02:46.713Z,4.27
2023-12-20T07:05:17.893Z,4.26
2023-12-20T07:07:46.022Z,4.21
2023-12-20T07:10:14.737Z,4.20
2023-12-20T07:12:42.386Z,4.22
2023-12-20T07:15:10.341Z,4.23
2023-12-20T07:17:38.029Z,4.23
2023-12-20T07:20:07.945Z,4.22
2023-12-20T07:22:35.822Z,4.22
2023-12-20T07:25:04.878Z,4.23
2023-12-20T07:27:32.486Z,4.25
2023-12-20T07:30:00.100Z,4.24
2023-12-20T07:32:28.407Z,4.24
2023-12-20T07:34:56.755Z,4.24
2023-12-20T07:37:24.923Z,4.26
2023-12-20T07:39:52.546Z,4.28
2023-12-20T07:42:20.197Z,4.27
2023-12-20T07:44:47.956Z,4.25
2023-12-20T07:47:18.362Z,4.24
2023-12-20T07:49:46.003Z,4.25
2023-12-20T07:52:13.986Z,4.24
2023-12-20T07:54:42.055Z,4.22
2023-12-20T07:57:09.787Z,4.19
2023-12-20T07:59:37.734Z,4.17
2023-12-20T08:02:05.767Z,4.18
2023-12-20T08:04:34.006Z,4.19
2023-12-20T08:07:02.013Z,4.18
2023-12-20T08:09:30.032Z,4.16
2023-12-20T08:11:57.697Z,4.14
2023-12-20T08:14:25.296Z,4.16
2023-12-20T08:16:52.999Z,4.19
2023-12-20T08:19:20.799Z,4.21
2023-12-20T08:21:48.499Z,4.21
2023-12-20T08:24:16.481Z,4.20
2023-12-20T08:26:44.062Z,4.22
2023-12-20T08:29:14.242Z,4.23
2023-12-20T08:31:42.041Z,4.22
2023-12-20T08:34:10.042Z,4.21
2023-12-20T08:36:37.908Z,4.23
2023-12-20T08:39:08.606Z,4.26
2023-12-20T08:41:36.446Z,4.29
2023-12-20T08:44:04.775Z,4.30
2023-12-20T08:46:32.372Z,4.29
2023-12-20T08:49:01.692Z,4.28
2023-12-20T08:51:30.189Z,4.30
2023-12-20T08:53:58.430Z,4.32
2023-12-20T08:56:26.074Z,4.32
2023-12-20T08:58:53.677Z,4.30
2023-12-20T09:01:21.747Z,4.26
2023-12-20T09:03:49.501Z,4.26
2023-12-20T09:06:17.299Z,4.27
2023-12-20T09:08:45.005Z,4.26
2023-12-20T09:11:12.621Z,4.25
2023-12-20T09:13:41.007Z,4.26
2023-12-20T09:16:09.404Z,4.31
2023-12-20T09:18:37.013Z,4.33
2023-12-20T09:21:04.603Z,4.33
2023-12-20T09:23:32.283Z,4.32
2023-12-20T09:26:00.009Z,4.31
2023-12-20T09:28:27.804Z,4.33
2023-12-20T09:30:55.699Z,4.35
2023-12-20T09:33:23.579Z,4.35
2023-12-20T09:35:51.424Z,4.34
2023-12-20T09:38:19.275Z,4.34
2023-12-20T09:40:46.867Z,4.35
2023-12-20T09:43:18.813Z,4.35
2023-12-20T09:45:47.782Z,4.34
2023-12-20T09:48:18.002Z,4.32
2023-12-20T09:50:50.795Z,4.32
2023-12-20T09:53:20.733Z,4.32
2023-12-20T09:55:48.473Z,4.31
2023-12-20T09:58:16.614Z,4.29
2023-12-20T10:00:44.474Z,4.26
2023-12-20T10:03:12.134Z,4.24
2023-12-20T10:05:40.102Z,4.26
2023-12-20T10:08:08.418Z,4.27
2023-12-20T10:10:42.453Z,4.27
2023-12-20T10:13:15.726Z,4.26
2023-12-20T10:15:43.802Z,4.27
2023-12-20T10:18:13.428Z,4.28
2023-12-20T10:20:41.883Z,4.27
2023-12-20T10:23:09.519Z,4.26
2023-12-20T10:25:37.156Z,4.25
2023-12-20T10:28:15.773Z,4.27
2023-12-20T10:30:44.166Z,4.27
2023-12-20T10:33:12.748Z,4.26
2023-12-20T10:35:43.379Z,4.23
2023-12-20T10:38:12.937Z,4.22
2023-12-20T10:40:40.672Z,4.23
2023-12-20T10:43:08.532Z,4.23
2023-12-20T10:45:37.002Z,4.23
2023-12-20T10:48:05.573Z,4.22
2023-12-20T10:50:33.700Z,4.26
2023-12-20T10:53:02.026Z,4.28
2023-12-20T10:55:30.095Z,4.30
2023-12-20T10:58:10.496Z,4.29
2023-12-20T11:00:45.779Z,4.28
2023-12-20T11:03:14.031Z,4.30
2023-12-20T11:06:17.348Z,4.32
2023-12-20T11:08:57.339Z,4.34
2023-12-20T11:11:33.429Z,4.32
2023-12-20T11:14:03.599Z,4.32
2023-12-20T11:16:41.713Z,4.34
2023-12-20T11:19:16.878Z,4.37
2023-12-20T11:21:45.151Z,4.37
2023-12-20T11:24:12.817Z,4.36
2023-12-20T11:26:40.479Z,4.36
2023-12-20T11:29:34.079Z,4.37
2023-12-20T11:32:05.540Z,4.39
2023-12-20T11:34:34.479Z,4.37
2023-12-20T11:37:03.617Z,4.36
2023-12-20T11:39:31.910Z,4.35
2023-12-20T11:42:05.493Z,4.37
2023-12-20T11:44:33.668Z,4.35
2023-12-20T11:47:01.409Z,4.33
2023-12-20T11:49:31.880Z,4.33
2023-12-20T11:52:01.585Z,4.36
2023-12-20T11:54:31.479Z,4.39
2023-12-20T11:56:59.077Z,4.40
2023-12-20T11:59:27.026Z,4.43
2023-12-20T12:01:57.678Z,4.50
2023-12-20T12:04:25.492Z,4.57
2023-12-20T12:06:53.354Z,4.60
2023-12-20T12:09:21.243Z,4.59
2023-12-20T12:11:48.869Z,4.60
2023-12-20T12:14:16.466Z,4.61
2023-12-20T12:16:44.672Z,4.60
2023-12-20T12:19:25.040Z,4.59
2023-12-20T12:22:18.268Z,4.60
2023-12-20T12:24:46.937Z,4.60
2023-12-20T12:27:14.710Z,4.60
2023-12-20T12:29:42.466Z,4.58
2023-12-20T12:32:11.047Z,4.60
2023-12-20T12:34:39.079Z,4.63
2023-12-20T12:37:06.795Z,4.63
2023-12-20T12:39:35.488Z,4.62
2023-12-20T12:42:03.636Z,4.65
2023-12-20T12:44:31.332Z,4.68
2023-12-20T12:46:59.131Z,4.68
2023-12-20T12:49:29.214Z,4.68
2023-12-20T12:51:59.397Z,4.71
2023-12-20T12:54:27.450Z,4.74
2023-12-20T12:56:55.263Z,4.74
2023-12-20T12:59:22.843Z,4.74
2023-12-20T13:01:50.518Z,4.76
2023-12-20T13:04:18.627Z,4.77
2023-12-20T13:06:46.500Z,4.79
2023-12-20T13:09:14.181Z,4.78
2023-12-20T13:11:41.793Z,4.77
2023-12-20T13:14:11.957Z,4.79
2023-12-20T13:16:39.593Z,4.82
2023-12-20T13:19:07.720Z,4.84
2023-12-20T13:21:37.625Z,4.85
2023-12-20T13:24:05.935Z,4.85
2023-12-20T13:26:34.056Z,4.85
2023-12-20T13:29:01.677Z,4.87
2023-12-20T13:31:29.752Z,4.88
2023-12-20T13:33:57.878Z,4.89
2023-12-20T13:36:25.601Z,4.88
2023-12-20T13:38:54.278Z,4.88
2023-12-20T13:41:22.334Z,4.90
2023-12-20T13:43:49.944Z,4.92
2023-12-20T13:46:18.399Z,4.92
2023-12-20T13:48:46.480Z,4.89
2023-12-20T13:51:14.214Z,4.86
2023-12-20T13:53:41.864Z,4.85
2023-12-20T13:56:09.703Z,4.83
2023-12-20T13:58:38.519Z,4.81
2023-12-20T14:01:06.414Z,4.77
2023-12-20T14:03:34.939Z,4.77
2023-12-20T14:06:02.716Z,4.79
2023-12-20T14:08:30.406Z,4.83
2023-12-20T14:10:58.276Z,4.83
2023-12-20T14:13:26.004Z,4.81
2023-12-20T14:15:55.354Z,4.75
2023-12-20T14:18:23.001Z,4.72
2023-12-20T14:20:51.741Z,4.71
2023-12-20T14:23:19.378Z,4.68
2023-12-20T14:25:52.103Z,4.65
2023-12-20T14:28:20.842Z,4.61
2023-12-20T14:30:50.572Z,4.57
2023-12-20T14:33:21.049Z,4.55
2023-12-20T14:35:48.942Z,4.53
2023-12-20T14:38:16.788Z,4.52
2023-12-20T14:40:44.545Z,4.49
2023-12-20T14:43:12.183Z,4.45
2023-12-20T14:45:40.170Z,4.42
2023-12-20T14:48:08.229Z,4.41
2023-12-20T14:50:37.812Z,4.42
2023-12-20T14:53:05.684Z,4.43
2023-12-20T14:55:33.534Z,4.42
2023-12-20T14:58:02.088Z,4.41
2023-12-20T15:00:31.064Z,4.38
2023-12-20T15:02:58.728Z,4.38
2023-12-20T15:05:28.191Z,4.41
2023-12-20T15:07:55.938Z,4.42
2023-12-20T15:10:23.678Z,4.42
2023-12-20T15:12:51.527Z,4.42
2023-12-20T15:15:19.921Z,4.41
2023-12-20T15:17:47.953Z,4.43
2023-12-20T15:20:15.916Z,4.46
2023-12-20T15:22:46.871Z,4.49
2023-12-20T15:25:21.287Z,4.50
2023-12-20T15:27:54.626Z,4.48
2023-12-20T15:30:23.131Z,4.46
2023-12-20T15:32:51.387Z,4.44
2023-12-20T15:35:19.306Z,4.45
2023-12-20T15:37:47.588Z,4.48
2023-12-20T15:40:15.753Z,4.50
2023-12-20T15:42:43.390Z,4.50
2023-12-20T15:45:11.500Z,4.47
2023-12-20T15:47:39.366Z,4.46
2023-12-20T15:50:08.969Z,4.47
2023-12-20T15:52:38.385Z,4.48
2023-12-20T15:55:06.692Z,4.47
2023-12-20T15:57:44.810Z,4.46
2023-12-20T16:00:17.837Z,4.42
2023-12-20T16:02:45.414Z,4.41
2023-12-20T16:05:13.275Z,4.43
2023-12-20T16:07:41.229Z,4.41
2023-12-20T16:10:09.135Z,4.37
2023-12-20T16:12:36.818Z,4.32
2023-12-20T16:15:05.164Z,4.30
2023-12-20T16:17:34.604Z,4.31
2023-12-20T16:20:02.522Z,4.32
2023-12-20T16:22:30.485Z,4.31
2023-12-20T16:24:58.202Z,4.29
2023-12-20T16:27:25.904Z,4.27
2023-12-20T16:29:53.596Z,4.27
2023-12-20T16:32:21.203Z,4.28
2023-12-20T16:34:49.664Z,4.26
2023-12-20T16:37:17.666Z,4.22
2023-12-20T16:39:45.336Z,4.18
2023-12-20T16:42:13.152Z,4.16
2023-12-20T16:44:41.024Z,4.18
2023-12-20T16:47:08.677Z,4.19
2023-12-20T16:49:36.413Z,4.19
2023-12-20T16:52:06.307Z,4.17
2023-12-20T16:54:34.040Z,4.14
2023-12-20T16:57:01.644Z,4.12
2023-12-20T16:59:29.211Z,4.12
2023-12-20T17:01:56.806Z,4.12
2023-12-20T17:04:24.811Z,4.13
2023-12-20T17:06:52.495Z,4.12
2023-12-20T17:09:20.145Z,4.10
2023-12-20T17:11:47.792Z,4.10
2023-12-20T17:14:15.448Z,4.13
2023-12-20T17:16:43.039Z,4.15
2023-12-20T17:19:10.712Z,4.14
2023-12-20T17:21:39.195Z,4.12
2023-12-20T17:24:08.876Z,4.11
2023-12-20T17:26:38.962Z,4.11
2023-12-20T17:29:06.725Z,4.12
2023-12-20T17:31:34.490Z,4.11
2023-12-20T17:34:02.217Z,4.10
2023-12-20T17:36:29.866Z,4.08
2023-12-20T17:38:57.473Z,4.07
2023-12-20T17:41:25.051Z,4.08
2023-12-20T17:43:52.836Z,4.06
2023-12-20T17:46:20.492Z,4.03
2023-12-20T17:48:48.375Z,4.00
2023-12-20T17:51:16.239Z,3.99
2023-12-20T17:53:43.909Z,3.99
2023-12-20T17:56:11.714Z,4.01
2023-12-20T17:58:39.665Z,4.01
2023-12-20T18:01:07.390Z,3.98
2023-12-20T18:03:35.159Z,3.97
2023-12-20T18:06:03.730Z,3.99
2023-12-20T18:08:31.344Z,4.01
2023-12-20T18:10:58.947Z,4.01
2023-12-20T18:13:26.754Z,3.99
2023-12-20T18:15:54.468Z,3.99
2023-12-20T18:18:22.256Z,4.01
2023-12-20T18:20:50.429Z,4.01
2023-12-20T18:23:18.176Z,4.01
2023-12-20T18:25:46.646Z,3.98
2023-12-20T18:28:14.205Z,3.96
2023-12-20T18:30:41.899Z,3.97
2023-12-20T18:33:09.674Z,3.99
2023-12-20T18:35:38.849Z,3.98
2023-12-20T18:38:07.056Z,3.96
2023-12-20T18:40:34.962Z,3.95
2023-12-20T18:43:03.558Z,3.96
2023-12-20T18:45:31.343Z,3.98
2023-12-20T18:47:59.012Z,3.97
2023-12-20T18:50:26.983Z,3.95
2023-12-20T18:52:54.563Z,3.94
2023-12-20T18:55:22.197Z,3.95
2023-12-20T18:57:50.044Z,3.96
2023-12-20T19:00:17.834Z,3.96
2023-12-20T19:02:45.410Z,3.95
2023-12-20T19:05:15.740Z,3.93
2023-12-20T19:07:44.230Z,3.95
2023-12-20T19:10:12.524Z,3.96
2023-12-20T19:12:40.357Z,3.96
2023-12-20T19:15:08.636Z,3.95
2023-12-20T19:17:36.369Z,3.93
2023-12-20T19:20:05.752Z,3.94
2023-12-20T19:22:35.189Z,3.95
2023-12-20T19:25:07.330Z,3.97
2023-12-20T19:27:38.084Z,3.95
2023-12-20T19:30:06.959Z,3.92
2023-12-20T19:32:35.390Z,3.91
2023-12-20T19:35:03.444Z,3.92
2023-12-20T19:37:31.246Z,3.93
2023-12-20T19:39:59.485Z,3.94
2023-12-20T19:42:27.352Z,3.93
2023-12-20T19:44:56.121Z,3.90
2023-12-20T19:47:23.775Z,3.89
2023-12-20T19:49:51.503Z,3.90
2023-12-20T19:52:19.314Z,3.91
2023-12-20T19:54:47.032Z,3.89
2023-12-20T19:57:15.792Z,3.87
2023-12-20T19:59:43.672Z,3.83
2023-12-20T20:02:11.506Z,3.80
2023-12-20T20:04:39.344Z,3.80
2023-12-20T20:07:10.793Z,3.80
2023-12-20T20:09:38.406Z,3.77
2023-12-20T20:12:06.498Z,3.74
2023-12-20T20:14:34.093Z,3.70
2023-12-20T20:17:02.817Z,3.71
2023-12-20T20:19:31.345Z,3.71
2023-12-20T20:21:59.444Z,3.68
2023-12-20T20:24:27.036Z,3.65
2023-12-20T20:26:55.037Z,3.61
2023-12-20T20:29:22.733Z,3.57
2023-12-20T20:31:50.550Z,3.57
2023-12-20T20:34:20.354Z,3.57
2023-12-20T20:36:48.159Z,3.54
2023-12-20T20:39:17.118Z,3.49
2023-12-20T20:41:44.828Z,3.46
2023-12-20T20:44:12.552Z,3.45
2023-12-20T20:46:40.350Z,3.43
2023-12-20T20:49:08.293Z,3.40
2023-12-20T20:51:35.940Z,3.36
2023-12-20T20:54:12.060Z,3.34
2023-12-20T20:56:46.131Z,3.34
2023-12-20T20:59:13.747Z,3.36
2023-12-20T21:01:41.415Z,3.37
2023-12-20T21:04:09.467Z,3.37
2023-12-20T21:06:37.049Z,3.36
2023-12-20T21:09:06.076Z,3.36
2023-12-20T21:11:34.052Z,3.38
2023-12-20T21:14:01.695Z,3.40
2023-12-20T21:16:29.331Z,3.40
2023-12-20T21:18:57.204Z,3.40
2023-12-20T21:21:24.900Z,3.41
2023-12-20T21:23:52.535Z,3.43
2023-12-20T21:26:20.379Z,3.47
2023-12-20T21:28:48.986Z,3.50
2023-12-20T21:31:16.693Z,3.49
2023-12-20T21:33:44.861Z,3.46
2023-12-20T21:36:12.797Z,3.43
2023-12-20T21:38:40.508Z,3.41
2023-12-20T21:41:08.843Z,3.43
2023-12-20T21:43:37.521Z,3.45
2023-12-20T21:46:05.289Z,3.43
2023-12-20T21:48:33.044Z,3.40
2023-12-20T21:51:00.617Z,3.37
2023-12-20T21:53:28.439Z,3.36
2023-12-20T21:55:56.226Z,3.39
2023-12-20T21:58:24.088Z,3.41
2023-12-20T22:00:51.904Z,3.41
2023-12-20T22:03:19.730Z,3.39
2023-12-20T22:05:47.618Z,3.38
2023-12-20T22:08:15.278Z,3.38
2023-12-20T22:10:42.932Z,3.40
2023-12-20T22:13:10.660Z,3.43
2023-12-20T22:15:38.306Z,3.43
2023-12-20T22:18:06.476Z,3.42
2023-12-20T22:20:34.639Z,3.43
2023-12-20T22:23:04.379Z,3.45
2023-12-20T22:25:32.372Z,3.47
2023-12-20T22:28:00.273Z,3.48
2023-12-20T22:30:28.151Z,3.46
2023-12-20T22:32:55.928Z,3.45
2023-12-20T22:35:23.801Z,3.46
2023-12-20T22:37:53.286Z,3.48
2023-12-20T22:40:21.238Z,3.49
2023-12-20T22:42:48.906Z,3.48
2023-12-20T22:45:16.497Z,3.47
2023-12-20T22:47:47.741Z,3.50
2023-12-20T22:50:16.871Z,3.54
2023-12-20T22:52:44.587Z,3.54
2023-12-20T22:55:12.430Z,3.55
2023-12-20T22:57:40.215Z,3.55
2023-12-20T23:00:10.268Z,3.59
2023-12-20T23:02:38.410Z,3.63
2023-12-20T23:05:07.281Z,3.66
2023-12-20T23:07:35.345Z,3.66
2023-12-20T23:10:03.774Z,3.66
2023-12-20T23:12:32.826Z,3.67
2023-12-20T23:15:00.444Z,3.71
2023-12-20T23:17:28.130Z,3.74
2023-12-20T23:19:55.813Z,3.73
2023-12-20T23:22:24.504Z,3.71
2023-12-20T23:24:52.190Z,3.72
2023-12-20T23:27:19.784Z,3.73
2023-12-20T23:29:47.486Z,3.77
2023-12-20T23:32:15.217Z,3.78
2023-12-20T23:34:42.856Z,3.77
2023-12-20T23:37:12.565Z,3.75
2023-12-20T23:39:40.645Z,3.75
2023-12-20T23:42:08.997Z,3.77
2023-12-20T23:44:36.697Z,3.77
2023-12-20T23:47:04.565Z,3.75
2023-12-20T23:49:32.373Z,3.75
2023-12-20T23:52:00.064Z,3.77
2023-12-20T23:54:27.830Z,3.77
2023-12-20T23:56:55.652Z,3.76
2023-12-20T23:59:24.009Z,3.75
